sensor_id;sensor_type;location;lat;lon;timestamp;pressure;altitude;pressure_sealevel;temperature;humidity
30819;BME280;17546;42.674;23.284;2022-10-16T00:00:15;95360.16;;;17.82;42.80
30819;BME280;17546;42.674;23.284;2022-10-16T00:02:41;95374.47;;;17.97;42.42
30819;BME280;17546;42.674;23.284;2022-10-16T00:05:06;95366.66;;;17.90;42.70
30819;BME280;17546;42.674;23.284;2022-10-16T00:07:32;95369.44;;;17.71;43.17
30819;BME280;17546;42.674;23.284;2022-10-16T00:09:57;95379.19;;;17.64;43.21
30819;BME280;17546;42.674;23.284;2022-10-16T00:12:22;95382.47;;;17.44;43.68
30819;BME280;17546;42.674;23.284;2022-10-16T00:14:48;95375.09;;;17.65;42.95
30819;BME280;17546;42.674;23.284;2022-10-16T00:17:13;95376.13;;;17.43;43.38
30819;BME280;17546;42.674;23.284;2022-10-16T00:19:39;95376.69;;;17.61;43.28
30819;BME280;17546;42.674;23.284;2022-10-16T00:22:04;95379.56;;;17.55;43.46
30819;BME280;17546;42.674;23.284;2022-10-16T00:24:29;95374.56;;;17.67;42.97
30819;BME280;17546;42.674;23.284;2022-10-16T00:26:55;95375.66;;;17.39;43.64
30819;BME280;17546;42.674;23.284;2022-10-16T00:29:20;95387.13;;;17.60;43.05
30819;BME280;17546;42.674;23.284;2022-10-16T00:31:45;95381.13;;;17.50;43.24
30819;BME280;17546;42.674;23.284;2022-10-16T00:34:14;95383.81;;;17.37;43.67
30819;BME280;17546;42.674;23.284;2022-10-16T00:36:39;95385.31;;;17.19;44.00
30819;BME280;17546;42.674;23.284;2022-10-16T00:39:05;95385.91;;;17.12;44.24
30819;BME280;17546;42.674;23.284;2022-10-16T00:41:31;95392.78;;;17.11;44.26
30819;BME280;17546;42.674;23.284;2022-10-16T00:43:58;95391.25;;;17.34;43.70
30819;BME280;17546;42.674;23.284;2022-10-16T00:49:19;95390.22;;;17.38;43.46
30819;BME280;17546;42.674;23.284;2022-10-16T00:51:48;95384.66;;;17.07;44.10
30819;BME280;17546;42.674;23.284;2022-10-16T00:54:19;95378.94;;;17.19;43.83
30819;BME280;17546;42.674;23.284;2022-10-16T00:56:46;95378.81;;;17.30;43.58
30819;BME280;17546;42.674;23.284;2022-10-16T00:59:21;95383.59;;;17.35;43.57
30819;BME280;17546;42.674;23.284;2022-10-16T01:01:49;95397.69;;;17.29;43.61
30819;BME280;17546;42.674;23.284;2022-10-16T01:04:15;95386.59;;;17.18;43.78
30819;BME280;17546;42.674;23.284;2022-10-16T01:12:08;95392.25;;;17.12;43.75
30819;BME280;17546;42.674;23.284;2022-10-16T01:14:57;95387.81;;;17.23;43.61
30819;BME280;17546;42.674;23.284;2022-10-16T01:17:58;95397.72;;;17.24;43.55
30819;BME280;17546;42.674;23.284;2022-10-16T01:28:40;95380.59;;;17.33;43.16
30819;BME280;17546;42.674;23.284;2022-10-16T01:31:10;95378.53;;;17.33;43.36
30819;BME280;17546;42.674;23.284;2022-10-16T01:33:42;95375.78;;;17.28;43.14
30819;BME280;17546;42.674;23.284;2022-10-16T01:36:15;95380.91;;;17.24;43.37
30819;BME280;17546;42.674;23.284;2022-10-16T01:38:44;95375.63;;;17.20;43.56
30819;BME280;17546;42.674;23.284;2022-10-16T01:41:19;95382.00;;;17.21;43.26
30819;BME280;17546;42.674;23.284;2022-10-16T01:43:50;95381.28;;;17.14;43.38
30819;BME280;17546;42.674;23.284;2022-10-16T01:46:20;95387.13;;;17.17;43.31
30819;BME280;17546;42.674;23.284;2022-10-16T01:48:49;95389.56;;;17.26;43.21
30819;BME280;17546;42.674;23.284;2022-10-16T01:51:17;95392.81;;;17.30;42.91
30819;BME280;17546;42.674;23.284;2022-10-16T01:53:48;95391.38;;;17.23;43.19
30819;BME280;17546;42.674;23.284;2022-10-16T01:56:17;95394.34;;;17.31;42.99
30819;BME280;17546;42.674;23.284;2022-10-16T01:58:51;95397.59;;;17.35;42.95
30819;BME280;17546;42.674;23.284;2022-10-16T02:01:22;95400.41;;;17.35;42.96
30819;BME280;17546;42.674;23.284;2022-10-16T02:03:53;95401.53;;;17.26;42.81
30819;BME280;17546;42.674;23.284;2022-10-16T02:06:19;95399.84;;;17.18;42.91
30819;BME280;17546;42.674;23.284;2022-10-16T02:08:45;95410.09;;;17.34;42.55
30819;BME280;17546;42.674;23.284;2022-10-16T02:11:19;95409.84;;;17.32;42.66
30819;BME280;17546;42.674;23.284;2022-10-16T02:14:01;95403.91;;;17.17;42.92
30819;BME280;17546;42.674;23.284;2022-10-16T02:16:43;95409.03;;;17.12;42.86
30819;BME280;17546;42.674;23.284;2022-10-16T02:19:10;95417.88;;;17.22;42.67
30819;BME280;17546;42.674;23.284;2022-10-16T02:21:59;95423.75;;;17.19;42.80
30819;BME280;17546;42.674;23.284;2022-10-16T02:24:55;95428.69;;;16.77;43.58
30819;BME280;17546;42.674;23.284;2022-10-16T02:32:44;95425.56;;;16.86;43.18
30819;BME280;17546;42.674;23.284;2022-10-16T02:35:12;95432.22;;;16.83;43.33
30819;BME280;17546;42.674;23.284;2022-10-16T02:37:38;95426.09;;;16.84;43.34
30819;BME280;17546;42.674;23.284;2022-10-16T02:40:07;95436.50;;;16.89;43.36
30819;BME280;17546;42.674;23.284;2022-10-16T02:42:53;95431.41;;;16.88;43.30
30819;BME280;17546;42.674;23.284;2022-10-16T02:45:20;95435.63;;;16.64;43.76
30819;BME280;17546;42.674;23.284;2022-10-16T02:47:54;95430.97;;;16.78;43.37
30819;BME280;17546;42.674;23.284;2022-10-16T02:50:20;95438.91;;;16.68;43.56
30819;BME280;17546;42.674;23.284;2022-10-16T02:52:45;95445.47;;;16.82;43.32
30819;BME280;17546;42.674;23.284;2022-10-16T02:55:11;95437.59;;;16.75;43.40
30819;BME280;17546;42.674;23.284;2022-10-16T02:57:36;95439.88;;;16.77;43.47
30819;BME280;17546;42.674;23.284;2022-10-16T03:00:04;95444.16;;;16.83;43.15
30819;BME280;17546;42.674;23.284;2022-10-16T03:02:30;95449.25;;;16.79;43.26
30819;BME280;17546;42.674;23.284;2022-10-16T03:04:55;95443.72;;;16.73;43.31
30819;BME280;17546;42.674;23.284;2022-10-16T03:07:21;95454.44;;;16.69;43.36
30819;BME280;17546;42.674;23.284;2022-10-16T03:09:46;95448.59;;;16.67;43.31
30819;BME280;17546;42.674;23.284;2022-10-16T03:12:11;95449.63;;;16.64;43.32
30819;BME280;17546;42.674;23.284;2022-10-16T03:14:37;95453.22;;;16.59;43.52
30819;BME280;17546;42.674;23.284;2022-10-16T03:17:05;95452.91;;;16.68;43.20
30819;BME280;17546;42.674;23.284;2022-10-16T03:19:30;95442.84;;;16.54;43.35
30819;BME280;17546;42.674;23.284;2022-10-16T03:21:55;95456.00;;;16.65;43.31
30819;BME280;17546;42.674;23.284;2022-10-16T03:24:21;95455.69;;;16.68;43.18
30819;BME280;17546;42.674;23.284;2022-10-16T03:26:46;95447.97;;;16.44;43.41
30819;BME280;17546;42.674;23.284;2022-10-16T03:29:11;95464.16;;;16.63;43.26
30819;BME280;17546;42.674;23.284;2022-10-16T03:31:37;95453.97;;;16.60;43.25
30819;BME280;17546;42.674;23.284;2022-10-16T03:34:02;95462.19;;;16.52;43.62
30819;BME280;17546;42.674;23.284;2022-10-16T03:36:28;95458.81;;;16.59;43.42
30819;BME280;17546;42.674;23.284;2022-10-16T03:38:53;95453.22;;;16.59;43.28
30819;BME280;17546;42.674;23.284;2022-10-16T03:41:18;95469.53;;;16.55;43.41
30819;BME280;17546;42.674;23.284;2022-10-16T03:43:44;95461.94;;;16.50;43.59
30819;BME280;17546;42.674;23.284;2022-10-16T03:46:09;95454.81;;;16.49;43.55
30819;BME280;17546;42.674;23.284;2022-10-16T03:48:35;95452.09;;;16.38;43.71
30819;BME280;17546;42.674;23.284;2022-10-16T03:51:00;95445.00;;;16.37;43.70
30819;BME280;17546;42.674;23.284;2022-10-16T03:53:25;95450.84;;;16.39;43.97
30819;BME280;17546;42.674;23.284;2022-10-16T03:55:51;95452.72;;;16.25;43.93
30819;BME280;17546;42.674;23.284;2022-10-16T03:58:16;95447.81;;;16.31;43.70
30819;BME280;17546;42.674;23.284;2022-10-16T04:00:43;95450.34;;;16.35;43.48
30819;BME280;17546;42.674;23.284;2022-10-16T04:03:09;95455.78;;;16.21;43.78
30819;BME280;17546;42.674;23.284;2022-10-16T04:05:35;95448.34;;;16.29;43.65
30819;BME280;17546;42.674;23.284;2022-10-16T04:08:01;95461.31;;;16.27;43.79
30819;BME280;17546;42.674;23.284;2022-10-16T04:10:26;95455.47;;;16.30;43.70
30819;BME280;17546;42.674;23.284;2022-10-16T04:12:52;95448.56;;;16.37;43.48
30819;BME280;17546;42.674;23.284;2022-10-16T04:15:27;95451.41;;;16.31;43.50
30819;BME280;17546;42.674;23.284;2022-10-16T04:17:52;95448.81;;;16.33;43.33
30819;BME280;17546;42.674;23.284;2022-10-16T04:20:18;95461.28;;;16.32;43.42
30819;BME280;17546;42.674;23.284;2022-10-16T04:22:44;95457.22;;;16.33;43.15
30819;BME280;17546;42.674;23.284;2022-10-16T04:25:10;95458.31;;;16.25;43.18
30819;BME280;17546;42.674;23.284;2022-10-16T04:27:37;95459.88;;;16.09;43.45
30819;BME280;17546;42.674;23.284;2022-10-16T04:30:03;95462.44;;;16.07;43.68
30819;BME280;17546;42.674;23.284;2022-10-16T04:32:29;95471.25;;;16.22;43.32
30819;BME280;17546;42.674;23.284;2022-10-16T04:34:54;95478.00;;;15.91;43.83
30819;BME280;17546;42.674;23.284;2022-10-16T04:37:23;95461.97;;;16.03;43.47
30819;BME280;17546;42.674;23.284;2022-10-16T04:39:49;95464.25;;;16.04;43.56
30819;BME280;17546;42.674;23.284;2022-10-16T04:42:14;95464.03;;;15.97;43.64
30819;BME280;17546;42.674;23.284;2022-10-16T04:44:40;95464.81;;;15.91;43.85
30819;BME280;17546;42.674;23.284;2022-10-16T04:47:06;95476.16;;;16.05;43.62
30819;BME280;17546;42.674;23.284;2022-10-16T04:49:42;95466.28;;;16.04;43.56
30819;BME280;17546;42.674;23.284;2022-10-16T04:52:08;95482.00;;;16.07;43.28
30819;BME280;17546;42.674;23.284;2022-10-16T04:54:34;95483.06;;;15.98;43.61
30819;BME280;17546;42.674;23.284;2022-10-16T04:57:00;95485.16;;;15.86;43.75
30819;BME280;17546;42.674;23.284;2022-10-16T04:59:25;95491.44;;;16.04;43.40
30819;BME280;17546;42.674;23.284;2022-10-16T05:01:50;95496.78;;;16.02;43.60
30819;BME280;17546;42.674;23.284;2022-10-16T05:04:16;95489.22;;;15.85;43.87
30819;BME280;17546;42.674;23.284;2022-10-16T05:06:42;95501.09;;;16.03;43.79
30819;BME280;17546;42.674;23.284;2022-10-16T05:09:08;95492.78;;;15.80;44.14
30819;BME280;17546;42.674;23.284;2022-10-16T05:11:33;95499.31;;;16.00;43.85
30819;BME280;17546;42.674;23.284;2022-10-16T05:13:59;95505.16;;;15.96;43.99
30819;BME280;17546;42.674;23.284;2022-10-16T05:16:24;95506.91;;;16.05;43.85
30819;BME280;17546;42.674;23.284;2022-10-16T05:18:51;95501.84;;;16.03;44.12
30819;BME280;17546;42.674;23.284;2022-10-16T05:21:16;95505.41;;;16.04;44.14
30819;BME280;17546;42.674;23.284;2022-10-16T05:23:42;95508.94;;;16.10;43.97
30819;BME280;17546;42.674;23.284;2022-10-16T05:26:07;95509.44;;;16.14;43.86
30819;BME280;17546;42.674;23.284;2022-10-16T05:28:33;95508.88;;;16.21;43.77
30819;BME280;17546;42.674;23.284;2022-10-16T05:30:58;95512.19;;;16.20;43.96
30819;BME280;17546;42.674;23.284;2022-10-16T05:33:25;95510.13;;;16.26;43.80
30819;BME280;17546;42.674;23.284;2022-10-16T05:35:51;95503.78;;;16.25;43.77
30819;BME280;17546;42.674;23.284;2022-10-16T05:38:17;95516.72;;;16.28;43.97
30819;BME280;17546;42.674;23.284;2022-10-16T05:40:43;95504.72;;;16.33;43.94
30819;BME280;17546;42.674;23.284;2022-10-16T05:43:17;95515.91;;;16.39;43.90
30819;BME280;17546;42.674;23.284;2022-10-16T05:45:43;95518.75;;;16.28;44.16
30819;BME280;17546;42.674;23.284;2022-10-16T05:48:08;95525.78;;;16.40;43.92
30819;BME280;17546;42.674;23.284;2022-10-16T05:50:34;95524.56;;;16.36;44.01
30819;BME280;17546;42.674;23.284;2022-10-16T05:52:59;95533.38;;;16.51;43.75
30819;BME280;17546;42.674;23.284;2022-10-16T05:55:25;95529.31;;;16.52;43.59
30819;BME280;17546;42.674;23.284;2022-10-16T05:57:50;95523.72;;;16.52;43.61
30819;BME280;17546;42.674;23.284;2022-10-16T06:00:18;95538.19;;;16.56;43.73
30819;BME280;17546;42.674;23.284;2022-10-16T06:02:44;95544.03;;;16.52;43.81
30819;BME280;17546;42.674;23.284;2022-10-16T06:05:09;95551.69;;;16.52;43.82
30819;BME280;17546;42.674;23.284;2022-10-16T06:07:35;95553.69;;;16.57;43.80
30819;BME280;17546;42.674;23.284;2022-10-16T06:10:01;95558.47;;;16.62;43.73
30819;BME280;17546;42.674;23.284;2022-10-16T06:12:26;95556.75;;;16.53;44.08
30819;BME280;17546;42.674;23.284;2022-10-16T06:14:52;95562.75;;;16.69;43.91
30819;BME280;17546;42.674;23.284;2022-10-16T06:17:17;95562.56;;;16.61;44.00
30819;BME280;17546;42.674;23.284;2022-10-16T06:19:43;95563.03;;;16.65;43.97
30819;BME280;17546;42.674;23.284;2022-10-16T06:22:09;95564.09;;;16.57;44.06
30819;BME280;17546;42.674;23.284;2022-10-16T06:24:34;95571.69;;;16.67;43.90
30819;BME280;17546;42.674;23.284;2022-10-16T06:27:00;95576.72;;;16.74;43.95
30819;BME280;17546;42.674;23.284;2022-10-16T06:29:25;95570.28;;;16.44;44.59
30819;BME280;17546;42.674;23.284;2022-10-16T06:31:50;95571.94;;;16.69;44.29
30819;BME280;17546;42.674;23.284;2022-10-16T06:34:16;95576.97;;;16.71;44.13
30819;BME280;17546;42.674;23.284;2022-10-16T06:36:41;95569.88;;;16.17;45.38
30819;BME280;17546;42.674;23.284;2022-10-16T06:39:08;95574.53;;;16.56;44.43
30819;BME280;17546;42.674;23.284;2022-10-16T06:41:34;95577.47;;;16.81;44.28
30819;BME280;17546;42.674;23.284;2022-10-16T06:44:00;95576.09;;;16.99;43.95
30819;BME280;17546;42.674;23.284;2022-10-16T06:46:26;95582.13;;;17.08;43.76
30819;BME280;17546;42.674;23.284;2022-10-16T06:48:54;95583.56;;;16.79;43.97
30819;BME280;17546;42.674;23.284;2022-10-16T06:51:22;95586.88;;;16.83;43.93
30819;BME280;17546;42.674;23.284;2022-10-16T06:53:53;95593.88;;;17.01;43.78
30819;BME280;17546;42.674;23.284;2022-10-16T06:56:24;95599.44;;;17.07;43.81
30819;BME280;17546;42.674;23.284;2022-10-16T06:58:51;95601.94;;;17.10;43.84
30819;BME280;17546;42.674;23.284;2022-10-16T07:01:18;95603.16;;;17.21;43.78
30819;BME280;17546;42.674;23.284;2022-10-16T07:03:45;95602.81;;;17.30;43.71
30819;BME280;17546;42.674;23.284;2022-10-16T07:06:12;95595.19;;;17.30;43.55
30819;BME280;17546;42.674;23.284;2022-10-16T07:08:40;95600.03;;;17.30;43.47
30819;BME280;17546;42.674;23.284;2022-10-16T07:11:11;95605.28;;;17.39;43.59
30819;BME280;17546;42.674;23.284;2022-10-16T07:13:39;95604.38;;;17.25;43.61
30819;BME280;17546;42.674;23.284;2022-10-16T07:16:16;95607.34;;;17.39;43.40
30819;BME280;17546;42.674;23.284;2022-10-16T07:18:42;95615.28;;;17.65;43.12
30819;BME280;17546;42.674;23.284;2022-10-16T07:21:13;95610.63;;;17.73;43.09
30819;BME280;17546;42.674;23.284;2022-10-16T07:23:39;95609.75;;;16.82;44.48
30819;BME280;17546;42.674;23.284;2022-10-16T07:26:05;95609.00;;;17.23;43.70
30819;BME280;17546;42.674;23.284;2022-10-16T07:28:32;95614.63;;;17.53;43.17
30819;BME280;17546;42.674;23.284;2022-10-16T07:31:06;95616.03;;;17.65;43.06
30819;BME280;17546;42.674;23.284;2022-10-16T07:33:34;95609.28;;;17.80;43.20
30819;BME280;17546;42.674;23.284;2022-10-16T07:35:59;95611.53;;;17.87;42.88
30819;BME280;17546;42.674;23.284;2022-10-16T07:38:25;95610.44;;;17.95;42.42
30819;BME280;17546;42.674;23.284;2022-10-16T07:41:01;95610.34;;;17.46;43.62
30819;BME280;17546;42.674;23.284;2022-10-16T07:43:28;95613.22;;;17.95;42.70
30819;BME280;17546;42.674;23.284;2022-10-16T07:45:54;95617.66;;;18.10;42.49
30819;BME280;17546;42.674;23.284;2022-10-16T07:48:20;95616.09;;;18.14;42.71
30819;BME280;17546;42.674;23.284;2022-10-16T07:50:46;95615.56;;;18.16;42.56
30819;BME280;17546;42.674;23.284;2022-10-16T07:53:12;95612.63;;;17.48;43.54
30819;BME280;17546;42.674;23.284;2022-10-16T07:55:38;95622.94;;;17.64;43.33
30819;BME280;17546;42.674;23.284;2022-10-16T07:58:03;95621.25;;;17.80;42.80
30819;BME280;17546;42.674;23.284;2022-10-16T08:00:29;95626.53;;;18.14;42.57
30819;BME280;17546;42.674;23.284;2022-10-16T08:02:59;95632.03;;;18.01;42.52
30819;BME280;17546;42.674;23.284;2022-10-16T08:05:29;95632.16;;;18.14;42.18
30819;BME280;17546;42.674;23.284;2022-10-16T08:07:55;95623.81;;;17.78;42.50
30819;BME280;17546;42.674;23.284;2022-10-16T08:10:23;95620.19;;;18.13;42.15
30819;BME280;17546;42.674;23.284;2022-10-16T08:12:49;95618.97;;;18.09;42.19
30819;BME280;17546;42.674;23.284;2022-10-16T08:15:15;95624.69;;;17.98;42.82
30819;BME280;17546;42.674;23.284;2022-10-16T08:17:40;95616.84;;;18.15;42.16
30819;BME280;17546;42.674;23.284;2022-10-16T08:20:06;95610.63;;;18.47;41.36
30819;BME280;17546;42.674;23.284;2022-10-16T08:22:32;95615.78;;;18.18;42.25
30819;BME280;17546;42.674;23.284;2022-10-16T08:24:58;95611.97;;;18.21;42.12
30819;BME280;17546;42.674;23.284;2022-10-16T08:27:23;95616.03;;;17.95;42.09
30819;BME280;17546;42.674;23.284;2022-10-16T08:29:49;95616.97;;;17.73;42.66
30819;BME280;17546;42.674;23.284;2022-10-16T08:32:14;95610.25;;;18.37;41.75
30819;BME280;17546;42.674;23.284;2022-10-16T08:34:40;95609.06;;;18.70;40.95
30819;BME280;17546;42.674;23.284;2022-10-16T08:37:05;95607.75;;;18.52;41.40
30819;BME280;17546;42.674;23.284;2022-10-16T08:39:33;95617.56;;;18.21;41.54
30819;BME280;17546;42.674;23.284;2022-10-16T08:47:39;95612.63;;;18.71;41.35
30819;BME280;17546;42.674;23.284;2022-10-16T08:50:10;95611.13;;;18.89;41.18
30819;BME280;17546;42.674;23.284;2022-10-16T08:52:40;95613.66;;;19.57;39.85
30819;BME280;17546;42.674;23.284;2022-10-16T08:55:19;95615.09;;;19.96;39.52
30819;BME280;17546;42.674;23.284;2022-10-16T08:57:49;95616.94;;;20.33;39.37
30819;BME280;17546;42.674;23.284;2022-10-16T09:00:15;95616.28;;;20.27;39.39
30819;BME280;17546;42.674;23.284;2022-10-16T09:02:49;95630.69;;;20.77;38.86
30819;BME280;17546;42.674;23.284;2022-10-16T09:05:28;95616.50;;;20.16;38.07
30819;BME280;17546;42.674;23.284;2022-10-16T09:18:52;95620.19;;;22.38;32.60
30819;BME280;17546;42.674;23.284;2022-10-16T09:21:41;95617.13;;;22.28;31.77
30819;BME280;17546;42.674;23.284;2022-10-16T09:24:18;95623.50;;;22.94;31.61
30819;BME280;17546;42.674;23.284;2022-10-16T09:26:44;95615.63;;;23.00;30.77
30819;BME280;17546;42.674;23.284;2022-10-16T09:29:14;95615.56;;;23.51;32.34
30819;BME280;17546;42.674;23.284;2022-10-16T09:31:40;95618.06;;;23.70;31.72
30819;BME280;17546;42.674;23.284;2022-10-16T09:34:35;95625.44;;;24.12;30.16
30819;BME280;17546;42.674;23.284;2022-10-16T09:37:02;95618.09;;;24.17;28.98
30819;BME280;17546;42.674;23.284;2022-10-16T09:39:28;95621.22;;;24.51;28.10
30819;BME280;17546;42.674;23.284;2022-10-16T09:41:54;95617.31;;;24.24;28.11
30819;BME280;17546;42.674;23.284;2022-10-16T09:44:24;95617.88;;;23.68;28.96
30819;BME280;17546;42.674;23.284;2022-10-16T09:47:05;95608.38;;;24.58;28.30
30819;BME280;17546;42.674;23.284;2022-10-16T09:49:36;95604.16;;;24.82;27.94
30819;BME280;17546;42.674;23.284;2022-10-16T09:52:04;95606.84;;;24.72;28.03
30819;BME280;17546;42.674;23.284;2022-10-16T09:54:29;95600.69;;;24.36;27.64
30819;BME280;17546;42.674;23.284;2022-10-16T09:57:07;95600.94;;;24.86;27.87
30819;BME280;17546;42.674;23.284;2022-10-16T09:59:46;95601.78;;;25.11;27.23
30819;BME280;17546;42.674;23.284;2022-10-16T10:02:14;95603.28;;;25.20;26.42
30819;BME280;17546;42.674;23.284;2022-10-16T10:04:51;95604.69;;;24.88;28.77
30819;BME280;17546;42.674;23.284;2022-10-16T10:07:35;95597.09;;;24.35;26.92
30819;BME280;17546;42.674;23.284;2022-10-16T10:10:05;95593.97;;;24.79;27.84
30819;BME280;17546;42.674;23.284;2022-10-16T10:12:32;95592.97;;;25.32;27.92
30819;BME280;17546;42.674;23.284;2022-10-16T10:15:20;95589.34;;;25.40;26.89
30819;BME280;17546;42.674;23.284;2022-10-16T10:20:29;95592.28;;;26.25;26.83
30819;BME280;17546;42.674;23.284;2022-10-16T10:22:56;95588.78;;;26.34;25.73
30819;BME280;17546;42.674;23.284;2022-10-16T10:25:33;95589.16;;;25.95;25.90
30819;BME280;17546;42.674;23.284;2022-10-16T10:28:10;95589.59;;;26.09;26.13
30819;BME280;17546;42.674;23.284;2022-10-16T10:35:56;95578.41;;;24.95;25.34
30819;BME280;17546;42.674;23.284;2022-10-16T10:44:46;95566.72;;;24.91;24.96
30819;BME280;17546;42.674;23.284;2022-10-16T10:53:28;95552.44;;;25.47;25.43
30819;BME280;17546;42.674;23.284;2022-10-16T10:59:27;95556.91;;;25.58;25.72
30819;BME280;17546;42.674;23.284;2022-10-16T11:02:32;95546.41;;;25.68;26.04
30819;BME280;17546;42.674;23.284;2022-10-16T11:07:58;95551.16;;;25.66;24.46
30819;BME280;17546;42.674;23.284;2022-10-16T11:10:33;95539.56;;;25.21;24.42
30819;BME280;17546;42.674;23.284;2022-10-16T11:13:21;95541.94;;;25.83;24.77
30819;BME280;17546;42.674;23.284;2022-10-16T11:15:50;95537.09;;;25.75;24.72
30819;BME280;17546;42.674;23.284;2022-10-16T11:18:22;95542.22;;;25.19;25.42
30819;BME280;17546;42.674;23.284;2022-10-16T11:20:57;95539.50;;;25.79;25.08
30819;BME280;17546;42.674;23.284;2022-10-16T11:23:29;95534.16;;;25.41;24.13
30819;BME280;17546;42.674;23.284;2022-10-16T11:26:01;95532.09;;;25.84;24.09
30819;BME280;17546;42.674;23.284;2022-10-16T11:34:07;95534.81;;;25.24;25.48
30819;BME280;17546;42.674;23.284;2022-10-16T11:39:26;95523.16;;;25.12;25.10
30819;BME280;17546;42.674;23.284;2022-10-16T11:47:03;95525.38;;;24.48;25.17
30819;BME280;17546;42.674;23.284;2022-10-16T11:49:33;95536.78;;;24.73;25.57
30819;BME280;17546;42.674;23.284;2022-10-16T11:55:36;95522.75;;;24.34;26.33
30819;BME280;17546;42.674;23.284;2022-10-16T11:58:15;95523.41;;;23.56;26.31
30819;BME280;17546;42.674;23.284;2022-10-16T12:00:46;95527.53;;;23.93;26.80
30819;BME280;17546;42.674;23.284;2022-10-16T12:03:38;95526.59;;;24.70;26.01
30819;BME280;17546;42.674;23.284;2022-10-16T12:08:51;95529.63;;;23.47;26.68
30819;BME280;17546;42.674;23.284;2022-10-16T12:16:59;95523.91;;;24.80;26.96
30819;BME280;17546;42.674;23.284;2022-10-16T12:19:27;95532.59;;;25.14;26.78
30819;BME280;17546;42.674;23.284;2022-10-16T12:21:56;95524.22;;;24.51;26.59
30819;BME280;17546;42.674;23.284;2022-10-16T12:24:39;95530.34;;;24.72;26.63
30819;BME280;17546;42.674;23.284;2022-10-16T12:27:22;95528.63;;;24.77;26.66
30819;BME280;17546;42.674;23.284;2022-10-16T12:29:55;95529.97;;;25.09;26.92
30819;BME280;17546;42.674;23.284;2022-10-16T12:35:00;95532.72;;;24.91;26.24
30819;BME280;17546;42.674;23.284;2022-10-16T12:37:30;95522.88;;;24.44;26.59
30819;BME280;17546;42.674;23.284;2022-10-16T12:39:58;95517.75;;;24.58;26.18
30819;BME280;17546;42.674;23.284;2022-10-16T12:44:53;95522.78;;;24.11;26.47
30819;BME280;17546;42.674;23.284;2022-10-16T12:49:52;95524.22;;;24.91;26.79
30819;BME280;17546;42.674;23.284;2022-10-16T12:54:58;95536.59;;;24.71;26.79
30819;BME280;17546;42.674;23.284;2022-10-16T13:05:41;95536.97;;;25.08;26.18
30819;BME280;17546;42.674;23.284;2022-10-16T13:16:48;95536.16;;;25.23;25.80
30819;BME280;17546;42.674;23.284;2022-10-16T13:19:22;95538.19;;;25.30;26.08
30819;BME280;17546;42.674;23.284;2022-10-16T13:22:11;95534.88;;;25.41;25.99
30819;BME280;17546;42.674;23.284;2022-10-16T13:25:05;95536.28;;;25.32;26.09
30819;BME280;17546;42.674;23.284;2022-10-16T13:29:58;95536.72;;;25.21;25.75
30819;BME280;17546;42.674;23.284;2022-10-16T13:32:26;95532.28;;;25.03;25.46
30819;BME280;17546;42.674;23.284;2022-10-16T13:34:52;95540.34;;;25.14;25.55
30819;BME280;17546;42.674;23.284;2022-10-16T13:37:21;95539.75;;;25.15;25.58
30819;BME280;17546;42.674;23.284;2022-10-16T13:39:48;95535.97;;;25.21;25.97
30819;BME280;17546;42.674;23.284;2022-10-16T13:44:51;95550.25;;;24.49;25.87
30819;BME280;17546;42.674;23.284;2022-10-16T13:49:44;95546.19;;;24.12;26.59
30819;BME280;17546;42.674;23.284;2022-10-16T13:52:18;95550.38;;;24.74;25.76
30819;BME280;17546;42.674;23.284;2022-10-16T13:54:44;95541.50;;;24.70;26.03
30819;BME280;17546;42.674;23.284;2022-10-16T13:57:17;95549.06;;;24.68;26.17
30819;BME280;17546;42.674;23.284;2022-10-16T13:59:43;95536.56;;;24.79;26.66
30819;BME280;17546;42.674;23.284;2022-10-16T14:02:32;95542.00;;;24.84;25.70
30819;BME280;17546;42.674;23.284;2022-10-16T14:05:01;95545.47;;;23.81;26.62
30819;BME280;17546;42.674;23.284;2022-10-16T14:07:29;95538.00;;;24.39;26.58
30819;BME280;17546;42.674;23.284;2022-10-16T14:10:00;95546.88;;;24.43;25.76
30819;BME280;17546;42.674;23.284;2022-10-16T14:12:27;95543.47;;;24.52;25.58
30819;BME280;17546;42.674;23.284;2022-10-16T14:14:54;95550.69;;;24.23;25.82
30819;BME280;17546;42.674;23.284;2022-10-16T14:17:31;95548.38;;;24.44;25.88
30819;BME280;17546;42.674;23.284;2022-10-16T14:20:04;95549.88;;;24.61;25.80
30819;BME280;17546;42.674;23.284;2022-10-16T14:24:58;95543.19;;;24.10;25.89
30819;BME280;17546;42.674;23.284;2022-10-16T14:27:36;95554.91;;;23.68;25.72
30819;BME280;17546;42.674;23.284;2022-10-16T14:30:22;95562.19;;;24.25;25.49
30819;BME280;17546;42.674;23.284;2022-10-16T14:32:58;95555.97;;;24.34;25.47
30819;BME280;17546;42.674;23.284;2022-10-16T14:35:44;95561.31;;;23.99;25.63
30819;BME280;17546;42.674;23.284;2022-10-16T14:38:18;95566.22;;;23.76;25.54
30819;BME280;17546;42.674;23.284;2022-10-16T14:40:47;95570.72;;;23.94;25.78
30819;BME280;17546;42.674;23.284;2022-10-16T14:43:22;95564.31;;;24.17;25.59
30819;BME280;17546;42.674;23.284;2022-10-16T14:45:56;95572.59;;;23.45;25.63
30819;BME280;17546;42.674;23.284;2022-10-16T14:48:22;95571.47;;;23.64;25.89
30819;BME280;17546;42.674;23.284;2022-10-16T14:51:00;95571.47;;;24.02;25.40
30819;BME280;17546;42.674;23.284;2022-10-16T14:53:25;95574.13;;;24.00;25.83
30819;BME280;17546;42.674;23.284;2022-10-16T14:56:05;95573.38;;;24.00;25.23
30819;BME280;17546;42.674;23.284;2022-10-16T14:58:31;95570.72;;;24.09;26.02
30819;BME280;17546;42.674;23.284;2022-10-16T15:00:57;95585.25;;;23.83;25.59
30819;BME280;17546;42.674;23.284;2022-10-16T15:03:22;95590.53;;;23.79;25.55
30819;BME280;17546;42.674;23.284;2022-10-16T15:05:48;95591.69;;;23.91;25.59
30819;BME280;17546;42.674;23.284;2022-10-16T15:08:13;95585.19;;;23.29;25.95